Time;durP1;ratioP1;P1;durP2;ratioP2;P2;SDS_P1;SDS_P2;PMS_P1;PMS_P2;Temp;Humidity;BMP_temperature;BMP_pressure;BME280_temperature;BME280_humidity;BME280_pressure;Samples;Min_cycle;Max_cycle;Signal;HPM_P1;HPM_P2
2021/12/02 00:00:44;;;;;;;5.27;3.27;;;6.40;99.90;;;;;;5032147;28;20175;-71
2021/12/02 00:03:09;;;;;;;6.47;3.23;;;6.40;99.90;;;;;;5029843;28;20283;-70
2021/12/02 00:05:35;;;;;;;8.97;3.77;;;6.50;99.90;;;;;;5014180;28;20181;-71
2021/12/02 00:08:01;;;;;;;7.23;3.50;;;6.40;99.90;;;;;;5031870;28;20248;-70
2021/12/02 00:10:30;;;;;;;4.53;2.33;;;6.50;99.90;;;;;;5031684;28;20213;-71
2021/12/02 00:12:57;;;;;;;4.77;2.90;;;6.50;99.90;;;;;;5029989;28;20186;-71
2021/12/02 00:15:26;;;;;;;4.67;3.10;;;6.50;99.90;;;;;;5030300;28;20417;-70
2021/12/02 00:23:44;;;;;;;4.20;2.80;;;6.50;99.90;;;;;;5019533;28;20497;-70
2021/12/02 00:26:18;;;;;;;4.30;3.10;;;6.60;99.90;;;;;;5011605;28;20876;-70
2021/12/02 00:28:43;;;;;;;5.63;2.80;;;6.70;99.90;;;;;;5011730;28;20482;-71
2021/12/02 00:31:15;;;;;;;8.23;3.23;;;6.70;99.90;;;;;;5011783;28;20407;-71
2021/12/02 00:33:44;;;;;;;10.30;3.37;;;6.80;99.90;;;;;;5000849;28;20337;-70
2021/12/02 00:36:11;;;;;;;4.80;2.77;;;6.70;99.90;;;;;;5011399;28;20415;-71
2021/12/02 00:38:39;;;;;;;7.70;2.70;;;6.80;99.90;;;;;;5011623;28;20412;-71
2021/12/02 00:41:05;;;;;;;7.57;3.13;;;6.80;99.90;;;;;;4999592;28;20422;-71
2021/12/02 00:43:33;;;;;;;8.93;2.90;;;6.80;99.90;;;;;;5011857;28;20584;-71
2021/12/02 00:46:00;;;;;;;9.30;3.10;;;6.80;99.90;;;;;;5011567;28;20172;-71
2021/12/02 00:48:26;;;;;;;6.40;3.03;;;6.70;99.90;;;;;;5011894;28;20490;-71
2021/12/02 00:50:52;;;;;;;7.10;2.87;;;6.80;99.90;;;;;;5013580;28;20498;-71
2021/12/02 00:53:20;;;;;;;5.83;2.87;;;6.70;99.90;;;;;;5032198;28;20202;-71
2021/12/02 00:55:47;;;;;;;6.93;2.57;;;6.80;99.90;;;;;;5031877;28;20906;-71
2021/12/02 00:58:19;;;;;;;6.00;2.53;;;6.80;99.90;;;;;;5040791;28;20410;-71
2021/12/02 01:00:50;;;;;;;6.23;2.63;;;6.70;99.90;;;;;;5044064;28;20410;-70
2021/12/02 01:03:16;;;;;;;4.27;2.40;;;6.70;99.90;;;;;;5041921;28;20497;-70
2021/12/02 01:05:42;;;;;;;4.90;2.83;;;6.80;99.90;;;;;;5042386;28;20499;-71
2021/12/02 01:08:08;;;;;;;3.77;3.13;;;6.70;99.90;;;;;;5031599;28;20480;-70
2021/12/02 01:10:34;;;;;;;5.70;2.53;;;6.70;99.90;;;;;;5031320;28;20171;-70
2021/12/02 01:13:00;;;;;;;8.20;3.33;;;6.70;99.90;;;;;;5029713;28;20511;-70
2021/12/02 01:15:26;;;;;;;7.27;3.10;;;6.70;99.90;;;;;;5031090;28;20461;-70
2021/12/02 01:17:52;;;;;;;7.40;3.10;;;6.70;99.90;;;;;;5030959;28;20214;-70
2021/12/02 01:20:18;;;;;;;5.50;2.63;;;6.80;99.90;;;;;;5030862;28;20171;-71
2021/12/02 01:22:45;;;;;;;5.93;4.00;;;6.80;99.90;;;;;;5031026;28;20537;-70
2021/12/02 01:25:12;;;;;;;6.10;3.37;;;6.80;99.90;;;;;;5031024;28;20445;-70
2021/12/02 01:27:40;;;;;;;5.73;4.00;;;6.70;99.90;;;;;;5009471;28;20482;-71
2021/12/02 01:30:06;;;;;;;6.70;3.80;;;6.70;99.90;;;;;;5011312;28;20417;-71
2021/12/02 01:32:37;;;;;;;6.30;5.40;;;6.70;99.90;;;;;;5011359;28;20928;-70
2021/12/02 01:35:04;;;;;;;6.33;4.80;;;6.70;99.90;;;;;;4993943;28;20450;-70
2021/12/02 01:37:30;;;;;;;8.33;5.77;;;6.70;99.90;;;;;;5011191;28;20429;-71
2021/12/02 01:39:57;;;;;;;8.47;6.67;;;6.70;99.90;;;;;;5012582;28;20489;-71
2021/12/02 01:42:24;;;;;;;13.20;8.00;;;6.70;99.90;;;;;;5016444;28;20461;-71
2021/12/02 01:44:56;;;;;;;11.00;8.43;;;6.60;99.90;;;;;;4997424;28;20467;-71
2021/12/02 01:47:24;;;;;;;15.53;8.40;;;6.60;99.90;;;;;;5014854;28;20911;-71
2021/12/02 01:49:57;;;;;;;11.33;9.00;;;6.70;99.90;;;;;;5014824;28;20826;-71
2021/12/02 01:53:00;;;;;;;12.73;9.33;;;6.70;99.90;;;;;;5014686;28;20961;-71
2021/12/02 01:55:28;;;;;;;12.13;9.50;;;6.80;99.90;;;;;;5015057;28;20541;-71
2021/12/02 01:58:04;;;;;;;11.57;9.03;;;6.80;99.90;;;;;;5015058;28;20464;-70
2021/12/02 02:00:43;;;;;;;14.00;9.87;;;6.70;99.90;;;;;;5033173;28;20448;-71
2021/12/02 02:03:10;;;;;;;13.63;8.60;;;6.70;99.90;;;;;;5034308;28;20869;-71
2021/12/02 02:05:36;;;;;;;11.43;8.80;;;6.60;99.90;;;;;;5042963;28;20410;-71
2021/12/02 02:08:06;;;;;;;12.93;9.10;;;6.40;99.90;;;;;;5047494;28;20524;-70
2021/12/02 02:10:34;;;;;;;10.20;8.77;;;6.40;99.90;;;;;;5045790;28;20175;-69
2021/12/02 02:13:04;;;;;;;11.87;8.87;;;6.50;99.90;;;;;;5045423;28;20406;-71
2021/12/02 02:15:30;;;;;;;11.23;9.20;;;6.60;99.90;;;;;;5033668;28;20437;-71
2021/12/02 02:18:00;;;;;;;10.53;8.53;;;6.50;99.90;;;;;;5034087;28;20478;-71
2021/12/02 02:20:52;;;;;;;12.03;8.53;;;6.40;99.90;;;;;;5033947;28;20769;-70
2021/12/02 02:23:17;;;;;;;13.20;8.60;;;6.30;99.90;;;;;;5033773;28;20970;-71
2021/12/02 02:25:45;;;;;;;9.93;8.37;;;6.20;99.90;;;;;;5033913;28;20476;-71
2021/12/02 02:28:10;;;;;;;12.03;9.07;;;6.20;99.90;;;;;;5034361;28;20639;-71
2021/12/02 02:30:36;;;;;;;13.10;8.80;;;6.20;99.90;;;;;;5033888;28;20424;-71
2021/12/02 02:33:02;;;;;;;12.07;8.23;;;6.30;99.90;;;;;;5018177;28;20179;-71
2021/12/02 02:35:27;;;;;;;9.37;7.40;;;6.30;99.90;;;;;;5014577;28;20402;-71
2021/12/02 02:37:53;;;;;;;9.53;7.80;;;6.40;99.90;;;;;;5001403;28;20190;-70
2021/12/02 02:40:19;;;;;;;12.53;7.70;;;6.50;99.90;;;;;;5005551;28;20209;-70
2021/12/02 02:42:49;;;;;;;14.90;8.30;;;6.40;99.90;;;;;;5022802;28;20199;-70
2021/12/02 02:45:17;;;;;;;10.50;7.47;;;6.40;99.90;;;;;;5022616;28;20187;-71
2021/12/02 02:47:43;;;;;;;12.13;7.77;;;6.50;99.90;;;;;;5017504;28;20422;-71
2021/12/02 02:50:13;;;;;;;9.87;6.57;;;6.40;99.90;;;;;;5014556;28;20422;-71
2021/12/02 02:52:40;;;;;;;9.20;6.40;;;6.50;99.90;;;;;;5012865;28;20263;-71
2021/12/02 02:55:06;;;;;;;8.70;6.17;;;6.40;99.90;;;;;;5014008;28;20474;-70
2021/12/02 02:57:40;;;;;;;10.20;5.63;;;6.30;99.90;;;;;;5013430;28;20426;-71
2021/12/02 03:00:10;;;;;;;8.83;6.40;;;6.20;99.90;;;;;;4997118;28;20414;-71
2021/12/02 03:02:56;;;;;;;6.03;5.40;;;6.20;99.90;;;;;;5014531;28;20446;-70
2021/12/02 03:05:26;;;;;;;11.27;6.93;;;6.10;99.90;;;;;;5013976;28;20501;-70
2021/12/02 03:07:58;;;;;;;6.90;5.93;;;6.20;99.90;;;;;;5013265;28;20410;-70
2021/12/02 03:13:11;;;;;;;7.97;4.97;;;6.20;99.90;;;;;;5033624;28;20410;-70
2021/12/02 03:18:23;;;;;;;8.07;4.57;;;6.30;99.90;;;;;;5032757;28;20817;-70
2021/12/02 03:20:49;;;;;;;5.77;4.03;;;6.40;99.90;;;;;;5032585;28;20410;-70
2021/12/02 03:23:14;;;;;;;7.13;3.77;;;6.40;99.90;;;;;;5032590;28;20309;-70
2021/12/02 03:25:40;;;;;;;4.13;2.90;;;6.30;99.90;;;;;;5032898;28;20171;-71
2021/12/02 03:28:05;;;;;;;3.57;2.67;;;6.30;99.90;;;;;;5019049;28;20250;-71
2021/12/02 03:30:31;;;;;;;3.60;2.50;;;6.30;99.90;;;;;;5013342;28;20171;-71
2021/12/02 03:32:57;;;;;;;3.10;2.53;;;6.10;99.90;;;;;;5012600;28;20211;-71
2021/12/02 03:35:22;;;;;;;7.50;3.50;;;6.10;99.90;;;;;;5012613;28;20419;-70
2021/12/02 03:37:48;;;;;;;8.13;3.27;;;5.90;99.90;;;;;;5017404;28;20230;-71
2021/12/02 03:40:14;;;;;;;4.50;3.03;;;5.80;99.90;;;;;;5017680;28;20187;-71
2021/12/02 03:42:45;;;;;;;4.77;3.10;;;5.80;99.90;;;;;;5021900;28;20235;-71
2021/12/02 03:45:11;;;;;;;3.73;3.37;;;5.90;99.90;;;;;;5007390;28;20474;-71
2021/12/02 03:47:36;;;;;;;5.43;3.17;;;5.90;99.90;;;;;;5004071;28;20493;-71
2021/12/02 03:50:02;;;;;;;5.87;3.60;;;6.00;99.90;;;;;;5019567;28;20502;-71
2021/12/02 03:52:28;;;;;;;9.33;3.60;;;5.90;99.90;;;;;;5013580;28;20177;-70
2021/12/02 03:54:53;;;;;;;5.33;3.80;;;5.80;99.90;;;;;;5012597;28;20683;-71
2021/12/02 03:57:19;;;;;;;4.47;3.70;;;5.70;99.90;;;;;;5012655;28;20263;-70
2021/12/02 03:59:44;;;;;;;5.40;3.67;;;5.80;99.90;;;;;;5013858;28;20195;-70
2021/12/02 04:02:10;;;;;;;5.73;5.13;;;5.80;99.90;;;;;;5012356;28;20233;-70
2021/12/02 04:04:35;;;;;;;4.70;3.13;;;5.90;99.90;;;;;;5011875;28;20230;-70
2021/12/02 04:07:01;;;;;;;3.73;2.90;;;5.90;99.90;;;;;;5012630;28;20178;-71
2021/12/02 04:09:34;;;;;;;4.83;3.70;;;5.80;99.90;;;;;;5012418;28;20647;-70
2021/12/02 04:12:05;;;;;;;4.80;3.40;;;5.60;99.90;;;;;;4994661;28;20190;-70
2021/12/02 04:14:39;;;;;;;7.80;3.60;;;5.50;99.90;;;;;;5012084;28;20430;-70
2021/12/02 04:17:06;;;;;;;4.93;3.57;;;5.60;99.90;;;;;;5028723;28;20436;-71
2021/12/02 04:19:32;;;;;;;3.17;2.73;;;5.80;99.90;;;;;;5031796;28;20529;-70
2021/12/02 04:21:58;;;;;;;3.20;2.90;;;5.80;99.90;;;;;;5031723;28;20619;-70
2021/12/02 04:24:25;;;;;;;3.93;3.10;;;5.80;99.90;;;;;;5031741;28;20209;-70
2021/12/02 04:26:50;;;;;;;5.73;3.73;;;5.90;99.90;;;;;;5031214;28;20405;-70
2021/12/02 04:29:17;;;;;;;6.30;3.33;;;5.80;99.90;;;;;;5031358;28;20881;-70
2021/12/02 04:31:44;;;;;;;6.00;3.27;;;5.70;99.90;;;;;;5031479;28;20174;-70
2021/12/02 04:34:11;;;;;;;4.80;3.27;;;5.50;99.90;;;;;;5031677;28;20484;-71
2021/12/02 04:36:37;;;;;;;4.40;3.43;;;5.40;99.90;;;;;;5031389;28;20819;-71
2021/12/02 04:39:04;;;;;;;8.70;3.70;;;5.50;99.90;;;;;;5031654;28;20414;-70
2021/12/02 04:41:29;;;;;;;5.23;3.43;;;5.40;99.90;;;;;;5019329;28;20207;-71
2021/12/02 04:43:55;;;;;;;5.67;3.20;;;5.40;99.90;;;;;;4993959;28;20509;-70
2021/12/02 04:46:20;;;;;;;6.43;3.50;;;5.30;99.90;;;;;;5010836;28;20171;-70
2021/12/02 04:48:46;;;;;;;5.27;3.33;;;5.30;99.90;;;;;;5012056;28;20171;-71
2021/12/02 04:51:12;;;;;;;4.00;2.97;;;5.20;99.90;;;;;;5012018;28;20175;-70
2021/12/02 04:53:37;;;;;;;5.33;3.10;;;5.30;99.90;;;;;;5011900;28;20661;-70
2021/12/02 04:56:03;;;;;;;4.70;3.13;;;5.30;99.90;;;;;;5012785;28;20262;-70
2021/12/02 04:58:29;;;;;;;6.90;3.33;;;5.40;99.90;;;;;;5011873;28;20240;-70
2021/12/02 05:00:54;;;;;;;7.40;3.37;;;5.40;99.90;;;;;;5011549;28;20561;-73
2021/12/02 05:03:20;;;;;;;8.47;5.07;;;5.30;99.90;;;;;;5011617;28;20429;-70
2021/12/02 05:05:45;;;;;;;8.03;4.73;;;5.20;99.90;;;;;;5012705;28;20191;-70
2021/12/02 05:08:11;;;;;;;7.93;4.17;;;5.10;99.90;;;;;;5029782;28;20211;-70
2021/12/02 05:10:36;;;;;;;6.20;4.03;;;5.20;99.90;;;;;;5031456;28;20174;-71
2021/12/02 05:13:02;;;;;;;8.70;4.43;;;5.30;99.90;;;;;;5031327;28;20186;-71
2021/12/02 05:15:27;;;;;;;5.57;4.40;;;5.50;99.90;;;;;;5033135;28;20252;-71
2021/12/02 05:17:53;;;;;;;9.03;4.60;;;5.60;99.90;;;;;;5017404;28;20176;-71
2021/12/02 05:20:19;;;;;;;6.13;3.20;;;5.60;99.90;;;;;;5015844;28;20659;-71
2021/12/02 05:22:44;;;;;;;7.63;3.40;;;5.80;99.90;;;;;;5015321;28;20195;-71
2021/12/02 05:25:10;;;;;;;3.23;2.93;;;5.90;99.90;;;;;;5048345;22;20217;-69
2021/12/02 05:27:36;;;;;;;5.43;3.50;;;5.60;99.90;;;;;;5061701;28;20243;-69
2021/12/02 05:30:03;;;;;;;3.53;2.30;;;5.50;99.90;;;;;;5037323;28;20223;-70
2021/12/02 05:32:31;;;;;;;3.53;3.00;;;5.30;99.90;;;;;;5053840;28;20415;-69
2021/12/02 05:34:58;;;;;;;2.77;2.53;;;5.10;99.90;;;;;;5048646;28;20456;-68
2021/12/02 05:37:24;;;;;;;3.40;2.30;;;5.00;99.90;;;;;;5033370;28;20429;-69
2021/12/02 05:39:50;;;;;;;2.40;2.20;;;4.90;99.90;;;;;;5016380;28;20438;-69
2021/12/02 05:42:15;;;;;;;3.00;2.30;;;4.70;99.90;;;;;;5034353;28;20656;-69
2021/12/02 05:44:42;;;;;;;3.23;2.70;;;4.80;99.90;;;;;;5034173;28;20225;-69
2021/12/02 05:47:07;;;;;;;3.10;2.37;;;4.90;99.90;;;;;;5016143;28;20179;-68
2021/12/02 05:49:33;;;;;;;2.03;1.87;;;5.00;99.90;;;;;;5033676;28;20426;-69
2021/12/02 05:51:58;;;;;;;1.97;1.80;;;5.20;99.90;;;;;;5034714;28;20187;-68
2021/12/02 05:54:24;;;;;;;2.40;2.20;;;5.30;99.90;;;;;;5034395;28;20197;-69
2021/12/02 05:56:49;;;;;;;2.70;1.50;;;5.40;99.90;;;;;;5033745;28;20182;-68
2021/12/02 05:59:15;;;;;;;2.43;2.23;;;5.40;99.90;;;;;;5033432;28;20401;-69
2021/12/02 06:01:42;;;;;;;6.00;2.70;;;5.40;99.90;;;;;;5034212;28;20186;-68
2021/12/02 06:04:09;;;;;;;1.60;1.50;;;5.50;99.90;;;;;;5034139;28;20220;-68
2021/12/02 06:06:35;;;;;;;1.77;1.60;;;5.50;99.90;;;;;;5016450;28;20437;-69
2021/12/02 06:09:00;;;;;;;3.17;2.10;;;5.60;99.90;;;;;;5034089;28;20479;-68
2021/12/02 06:11:26;;;;;;;3.47;2.10;;;5.60;99.90;;;;;;5032575;28;20644;-68
2021/12/02 06:13:51;;;;;;;3.33;2.23;;;5.60;99.90;;;;;;5029820;28;20244;-68
2021/12/02 06:16:17;;;;;;;4.07;2.40;;;5.60;99.90;;;;;;5017440;28;20248;-69
2021/12/02 06:18:43;;;;;;;3.07;2.77;;;5.60;99.90;;;;;;5029356;28;20202;-69
2021/12/02 06:21:10;;;;;;;3.50;3.10;;;5.50;99.90;;;;;;5028305;28;20256;-69
2021/12/02 06:23:36;;;;;;;3.93;2.90;;;5.40;99.90;;;;;;5025630;28;20322;-68
2021/12/02 06:26:02;;;;;;;6.70;3.30;;;5.40;99.90;;;;;;5011248;28;20468;-69
2021/12/02 06:28:28;;;;;;;4.43;3.43;;;5.20;99.90;;;;;;5030188;28;20511;-69
2021/12/02 06:30:53;;;;;;;5.17;3.63;;;5.10;99.90;;;;;;5029188;28;20676;-67
2021/12/02 06:33:19;;;;;;;4.60;4.20;;;5.20;99.90;;;;;;5029407;28;20647;-70
2021/12/02 06:35:44;;;;;;;6.00;4.67;;;5.30;99.90;;;;;;5029695;28;20687;-70
2021/12/02 06:38:10;;;;;;;5.77;4.53;;;5.40;99.90;;;;;;5030063;28;20191;-69
2021/12/02 06:40:37;;;;;;;5.10;4.53;;;5.50;99.90;;;;;;5029927;28;20218;-69
2021/12/02 06:43:03;;;;;;;5.40;4.90;;;5.50;99.90;;;;;;5012230;28;21300;-69
2021/12/02 06:45:29;;;;;;;5.73;5.13;;;5.50;99.90;;;;;;5026716;28;20480;-68
2021/12/02 06:47:58;;;;;;;7.70;6.07;;;5.50;99.90;;;;;;5029680;28;20841;-69
2021/12/02 06:50:26;;;;;;;7.10;5.57;;;5.50;99.90;;;;;;5030057;28;21111;-68
2021/12/02 06:52:52;;;;;;;9.83;5.80;;;5.50;99.90;;;;;;5030091;28;20468;-70
2021/12/02 06:55:19;;;;;;;9.23;5.80;;;5.50;99.90;;;;;;5030036;28;20838;-70
2021/12/02 06:57:45;;;;;;;6.07;5.40;;;5.50;99.90;;;;;;5028868;28;20773;-68
2021/12/02 07:00:14;;;;;;;8.13;5.30;;;5.50;99.90;;;;;;5025371;28;20434;-68
2021/12/02 07:02:41;;;;;;;6.63;6.03;;;5.40;99.90;;;;;;5009831;28;20563;-69
2021/12/02 07:05:09;;;;;;;8.13;6.63;;;5.30;99.90;;;;;;5028575;28;20457;-69
2021/12/02 07:07:36;;;;;;;7.00;6.30;;;5.30;99.90;;;;;;5027742;28;20481;-67
2021/12/02 07:10:15;;;;;;;7.10;6.40;;;5.30;99.90;;;;;;5031443;28;20478;-69
2021/12/02 07:12:42;;;;;;;9.30;6.57;;;5.30;99.90;;;;;;5007149;28;20499;-69
2021/12/02 07:15:15;;;;;;;10.00;6.60;;;5.30;99.90;;;;;;5027834;28;20518;-69
2021/12/02 07:17:40;;;;;;;10.77;9.03;;;5.20;99.90;;;;;;5010649;28;20960;-70
2021/12/02 07:20:07;;;;;;;11.40;9.57;;;5.20;99.90;;;;;;5009142;28;20560;-70
2021/12/02 07:22:32;;;;;;;11.60;9.13;;;5.30;99.90;;;;;;5028580;28;20230;-67
2021/12/02 07:24:58;;;;;;;11.47;9.83;;;5.30;99.90;;;;;;5028464;28;21040;-70
2021/12/02 07:27:24;;;;;;;14.80;9.73;;;5.40;99.90;;;;;;5028899;28;20723;-70
2021/12/02 07:29:50;;;;;;;12.53;9.27;;;5.50;99.90;;;;;;5028671;28;20198;-70
2021/12/02 07:32:15;;;;;;;12.90;10.37;;;5.60;99.90;;;;;;5028297;28;20233;-69
2021/12/02 07:34:44;;;;;;;10.43;9.33;;;5.50;99.90;;;;;;5028341;28;20453;-70
2021/12/02 07:37:15;;;;;;;13.87;10.47;;;5.40;99.90;;;;;;5027408;28;20337;-69
2021/12/02 07:39:40;;;;;;;13.37;10.80;;;5.30;99.90;;;;;;5010780;28;20449;-68
2021/12/02 07:42:06;;;;;;;13.97;10.73;;;5.30;99.90;;;;;;5028739;28;20475;-68
2021/12/02 07:44:35;;;;;;;16.70;11.17;;;5.30;99.90;;;;;;5028358;28;20701;-69
2021/12/02 07:47:02;;;;;;;13.70;11.40;;;5.10;99.90;;;;;;5043264;28;20225;-69
2021/12/02 07:49:28;;;;;;;15.10;11.30;;;5.20;99.90;;;;;;5048793;28;20484;-70
2021/12/02 07:51:59;;;;;;;15.40;11.87;;;5.30;99.90;;;;;;5048256;28;20484;-70
2021/12/02 07:54:25;;;;;;;17.07;11.80;;;5.20;99.90;;;;;;5037710;28;20202;-69
2021/12/02 07:56:52;;;;;;;17.30;13.60;;;5.30;99.90;;;;;;5027809;28;20648;-68
2021/12/02 07:59:19;;;;;;;15.77;12.40;;;5.40;99.90;;;;;;5028054;28;20440;-69
2021/12/02 08:01:46;;;;;;;18.90;12.90;;;5.40;99.90;;;;;;5010012;28;20461;-69
2021/12/02 08:04:12;;;;;;;17.10;12.80;;;5.40;99.90;;;;;;5028289;28;20440;-70
2021/12/02 08:06:37;;;;;;;15.40;12.23;;;5.40;99.90;;;;;;5025746;28;20866;-68
2021/12/02 08:09:05;;;;;;;15.07;12.20;;;5.30;99.90;;;;;;5027821;28;20213;-69
2021/12/02 08:11:31;;;;;;;14.67;10.60;;;5.40;99.90;;;;;;5042072;28;20660;-69
2021/12/02 08:13:57;;;;;;;17.03;12.17;;;5.20;99.90;;;;;;5045468;28;20451;-69
2021/12/02 08:16:23;;;;;;;12.23;10.47;;;4.90;99.90;;;;;;5028257;28;20276;-69
2021/12/02 08:18:48;;;;;;;12.77;10.13;;;4.70;99.90;;;;;;5027812;28;20473;-69
2021/12/02 08:21:14;;;;;;;11.70;10.37;;;4.70;99.90;;;;;;5029163;28;20420;-69
2021/12/02 08:23:39;;;;;;;12.27;10.10;;;4.60;99.90;;;;;;5029333;28;20223;-70
2021/12/02 08:26:05;;;;;;;11.93;9.90;;;4.60;99.90;;;;;;5028256;28;20536;-70
2021/12/02 08:28:31;;;;;;;10.73;9.63;;;4.50;99.90;;;;;;5028706;28;20170;-70
2021/12/02 08:30:58;;;;;;;12.77;10.30;;;4.50;99.90;;;;;;5029030;28;20209;-68
2021/12/02 08:33:24;;;;;;;14.70;10.83;;;4.60;99.90;;;;;;5027873;28;20181;-69
2021/12/02 08:35:49;;;;;;;12.67;11.00;;;4.80;99.90;;;;;;5028298;28;20510;-70
2021/12/02 08:38:17;;;;;;;18.67;10.13;;;4.80;99.90;;;;;;5028815;28;20418;-69
2021/12/02 08:40:47;;;;;;;13.67;10.90;;;4.80;99.90;;;;;;5028232;28;20169;-70
2021/12/02 08:43:14;;;;;;;14.10;11.20;;;4.80;99.90;;;;;;5028499;28;20491;-70
2021/12/02 08:45:42;;;;;;;12.30;10.13;;;5.00;99.90;;;;;;5028188;28;20436;-71
2021/12/02 08:48:09;;;;;;;12.57;10.83;;;5.10;99.90;;;;;;5026817;28;20451;-70
2021/12/02 08:50:36;;;;;;;10.50;9.40;;;5.00;99.90;;;;;;5029301;28;20421;-69
2021/12/02 08:53:04;;;;;;;12.67;10.97;;;4.90;99.90;;;;;;5031068;28;20425;-70
2021/12/02 08:55:31;;;;;;;12.20;10.43;;;4.80;99.90;;;;;;5031733;28;20472;-70
2021/12/02 08:57:57;;;;;;;10.80;9.70;;;4.80;99.90;;;;;;5031771;28;20797;-69
2021/12/02 09:00:32;;;;;;;14.00;10.50;;;4.90;99.90;;;;;;5013889;28;20425;-69
2021/12/02 09:02:58;;;;;;;11.77;8.93;;;4.80;99.90;;;;;;5031664;28;20461;-70
2021/12/02 09:05:24;;;;;;;11.53;9.13;;;4.90;99.90;;;;;;5031729;28;20454;-70
2021/12/02 09:07:49;;;;;;;12.83;9.07;;;4.90;99.90;;;;;;5031184;28;20467;-69
2021/12/02 09:10:16;;;;;;;11.70;8.17;;;5.00;99.90;;;;;;5031986;28;20277;-70
2021/12/02 09:12:42;;;;;;;10.73;8.33;;;5.10;99.90;;;;;;5015076;28;20189;-70
2021/12/02 09:15:08;;;;;;;11.77;8.50;;;5.20;99.90;;;;;;5032101;28;20436;-70
2021/12/02 09:17:35;;;;;;;9.23;8.20;;;5.30;99.90;;;;;;5031905;28;20417;-70
2021/12/02 09:20:02;;;;;;;9.83;6.73;;;5.20;99.90;;;;;;5014013;28;20413;-69
2021/12/02 09:22:28;;;;;;;8.57;7.27;;;5.10;99.90;;;;;;5032232;28;20554;-69
2021/12/02 09:24:53;;;;;;;8.73;7.27;;;4.80;99.90;;;;;;5032224;28;20464;-69
2021/12/02 09:27:19;;;;;;;8.00;7.20;;;4.60;99.90;;;;;;5030827;28;20745;-69
2021/12/02 09:29:45;;;;;;;8.30;7.40;;;4.60;99.90;;;;;;5031565;28;20291;-70
2021/12/02 09:32:11;;;;;;;8.10;5.83;;;4.70;99.90;;;;;;5029559;28;20864;-69
2021/12/02 09:34:37;;;;;;;9.47;7.40;;;4.80;99.90;;;;;;5031896;28;20173;-69
2021/12/02 09:37:03;;;;;;;10.27;8.17;;;4.60;99.90;;;;;;5031741;28;20430;-74
2021/12/02 09:39:31;;;;;;;8.80;7.07;;;4.60;99.90;;;;;;5031724;28;20840;-68
2021/12/02 09:41:58;;;;;;;8.87;6.10;;;4.70;99.90;;;;;;5013838;28;20209;-67
2021/12/02 09:44:23;;;;;;;7.57;5.57;;;4.80;99.90;;;;;;5031863;28;20412;-68
2021/12/02 09:46:50;;;;;;;8.10;5.70;;;4.70;99.90;;;;;;5031500;28;20439;-68
2021/12/02 09:49:16;;;;;;;8.27;5.57;;;4.70;99.90;;;;;;5013675;28;20167;-68
2021/12/02 09:54:19;;;;;;;6.90;4.87;;;4.80;99.90;;;;;;5031824;28;20419;-68
2021/12/02 09:56:51;;;;;;;7.57;4.50;;;4.80;99.90;;;;;;5013171;28;20465;-68
2021/12/02 09:59:36;;;;;;;8.73;6.27;;;4.80;99.90;;;;;;5013581;28;20425;-69
2021/12/02 10:02:08;;;;;;;8.77;5.30;;;4.60;99.90;;;;;;5031051;28;21040;-69
2021/12/02 10:04:43;;;;;;;8.67;6.47;;;4.60;99.90;;;;;;5031388;28;20447;-69
2021/12/02 10:07:19;;;;;;;10.90;7.80;;;4.80;99.90;;;;;;5031112;28;20419;-68
2021/12/02 10:10:16;;;;;;;11.40;8.37;;;5.00;99.90;;;;;;5032307;28;20389;-69
2021/12/02 10:13:12;;;;;;;10.27;7.57;;;4.90;99.90;;;;;;5016732;28;20504;-70
2021/12/02 10:15:40;;;;;;;12.17;8.50;;;4.80;99.90;;;;;;5030733;28;20451;-70
2021/12/02 10:18:13;;;;;;;9.60;7.63;;;4.70;99.90;;;;;;5013294;28;20433;-69
2021/12/02 10:20:42;;;;;;;10.33;8.10;;;4.80;99.90;;;;;;5011350;28;20423;-70
2021/12/02 10:23:15;;;;;;;7.67;6.87;;;4.80;99.90;;;;;;5011433;28;21035;-69
2021/12/02 10:25:56;;;;;;;5.97;5.07;;;4.90;99.90;;;;;;5010928;28;20482;-68
2021/12/02 10:28:23;;;;;;;4.80;4.40;;;5.10;99.90;;;;;;5016720;28;20421;-69
2021/12/02 10:30:54;;;;;;;6.70;4.00;;;5.20;99.90;;;;;;5030868;28;20412;-70
2021/12/02 10:33:31;;;;;;;4.80;3.80;;;5.30;99.90;;;;;;5030794;28;20446;-69
2021/12/02 10:35:56;;;;;;;4.20;3.70;;;5.40;99.90;;;;;;5030117;28;20581;-69
2021/12/02 10:38:51;;;;;;;4.67;4.10;;;5.40;99.90;;;;;;5030521;28;20494;-69
2021/12/02 10:41:21;;;;;;;5.67;3.63;;;5.50;99.90;;;;;;4977870;28;20200;-69
2021/12/02 10:44:10;;;;;;;4.03;3.73;;;5.30;99.90;;;;;;4969386;28;20451;-70
2021/12/02 10:46:42;;;;;;;5.97;3.80;;;5.40;99.90;;;;;;4968099;28;20444;-69
2021/12/02 10:49:15;;;;;;;4.70;4.20;;;5.50;99.90;;;;;;4969475;28;20412;-70
2021/12/02 10:51:47;;;;;;;6.30;4.40;;;5.50;99.90;;;;;;4969951;28;20559;-69
2021/12/02 10:54:15;;;;;;;4.53;4.13;;;5.60;99.90;;;;;;4969038;28;20420;-69
2021/12/02 10:56:46;;;;;;;6.70;4.60;;;5.60;99.90;;;;;;4968468;28;20440;-68
2021/12/02 10:59:36;;;;;;;7.50;5.73;;;5.70;99.90;;;;;;4969747;28;20511;-69
2021/12/02 11:02:22;;;;;;;5.30;4.70;;;5.50;99.90;;;;;;4970457;28;20487;-69
2021/12/02 11:04:54;;;;;;;5.50;5.00;;;5.40;99.90;;;;;;4972140;28;20900;-69
2021/12/02 11:07:40;;;;;;;4.43;3.93;;;5.30;99.90;;;;;;4961923;28;20439;-70
2021/12/02 11:10:12;;;;;;;9.47;5.67;;;5.30;99.90;;;;;;4953579;28;20912;-70
2021/12/02 11:12:45;;;;;;;9.27;5.60;;;5.10;99.90;;;;;;4967084;28;20424;-70
2021/12/02 11:15:17;;;;;;;5.53;5.03;;;5.10;99.90;;;;;;4968836;28;21023;-69
2021/12/02 11:18:02;;;;;;;6.20;5.53;;;5.20;99.90;;;;;;4999858;28;20417;-69
2021/12/02 11:20:37;;;;;;;7.73;4.70;;;5.30;99.90;;;;;;5012385;28;20421;-69
2021/12/02 11:23:15;;;;;;;7.93;5.57;;;5.30;99.90;;;;;;5000921;28;20469;-71
2021/12/02 11:25:49;;;;;;;7.87;6.30;;;5.40;99.90;;;;;;5025008;28;20587;-71
2021/12/02 11:28:16;;;;;;;6.83;6.17;;;5.50;99.90;;;;;;5031405;28;20427;-70
2021/12/02 11:30:41;;;;;;;9.73;7.07;;;5.50;99.90;;;;;;5030597;28;20421;-69
2021/12/02 11:33:08;;;;;;;10.90;7.30;;;5.50;99.90;;;;;;5030219;28;20451;-68
2021/12/02 11:35:44;;;;;;;7.47;6.10;;;5.20;99.90;;;;;;5031095;28;20191;-69
2021/12/02 11:38:22;;;;;;;11.27;7.50;;;4.90;99.90;;;;;;5030971;28;20412;-69
2021/12/02 11:40:51;;;;;;;11.83;7.00;;;4.90;99.90;;;;;;5031577;28;20910;-70
2021/12/02 11:43:28;;;;;;;8.43;7.07;;;5.00;99.90;;;;;;5047332;28;20510;-70
2021/12/02 11:45:56;;;;;;;6.43;5.80;;;5.10;99.90;;;;;;5032423;28;20421;-69
2021/12/02 11:48:24;;;;;;;8.50;7.33;;;5.20;99.90;;;;;;5033147;28;20409;-70
2021/12/02 11:50:52;;;;;;;6.47;5.87;;;5.30;99.90;;;;;;5032455;28;20402;-70
2021/12/02 11:53:21;;;;;;;8.30;6.37;;;5.40;99.90;;;;;;5033003;28;20406;-70
2021/12/02 11:55:48;;;;;;;7.43;6.73;;;5.40;99.90;;;;;;5032357;28;20804;-70
2021/12/02 11:58:14;;;;;;;9.50;6.33;;;5.30;99.90;;;;;;5032645;28;20440;-68
2021/12/02 12:00:39;;;;;;;9.67;6.80;;;5.10;99.90;;;;;;5032977;28;20413;-69
2021/12/02 12:03:11;;;;;;;8.50;7.10;;;5.00;99.90;;;;;;5032757;28;20306;-69
2021/12/02 12:05:41;;;;;;;8.50;7.13;;;4.80;99.90;;;;;;5031860;28;20195;-69
2021/12/02 12:08:07;;;;;;;11.20;8.17;;;4.70;99.90;;;;;;5032358;28;20417;-68
2021/12/02 12:10:38;;;;;;;9.23;6.90;;;4.70;99.90;;;;;;5032436;28;20413;-69
2021/12/02 12:13:44;;;;;;;6.30;4.73;;;4.60;99.90;;;;;;5033377;28;20455;-68
2021/12/02 12:16:20;;;;;;;8.00;4.83;;;4.80;99.90;;;;;;4955866;28;20536;-69
2021/12/02 12:18:47;;;;;;;3.60;3.27;;;4.80;99.90;;;;;;4971929;28;20727;-69
2021/12/02 12:21:13;;;;;;;5.10;3.57;;;4.80;99.90;;;;;;4966722;28;20429;-69
2021/12/02 12:23:59;;;;;;;5.70;3.23;;;4.70;99.90;;;;;;4962354;28;20774;-69
2021/12/02 12:26:38;;;;;;;5.30;3.43;;;4.70;99.90;;;;;;4970200;28;20478;-69
2021/12/02 12:29:06;;;;;;;4.50;3.17;;;4.70;99.90;;;;;;4970554;28;20486;-70
2021/12/02 12:32:07;;;;;;;4.33;3.93;;;4.80;99.90;;;;;;4971600;28;21208;-69
2021/12/02 12:34:44;;;;;;;3.70;3.10;;;4.80;99.90;;;;;;4983979;28;20544;-70
2021/12/02 12:37:21;;;;;;;7.83;3.20;;;5.00;99.90;;;;;;4984401;28;20525;-69
2021/12/02 12:40:12;;;;;;;5.40;3.50;;;5.00;99.90;;;;;;4984622;28;20458;-70
2021/12/02 12:42:59;;;;;;;5.57;4.07;;;5.10;99.90;;;;;;4945244;29;20515;-69
2021/12/02 12:45:31;;;;;;;5.80;3.30;;;5.10;99.90;;;;;;4934148;29;20517;-70
2021/12/02 12:48:02;;;;;;;3.20;2.77;;;5.10;99.90;;;;;;4933239;29;21075;-69
2021/12/02 12:50:34;;;;;;;4.10;3.00;;;4.90;99.90;;;;;;4936747;28;20454;-68
2021/12/02 12:53:07;;;;;;;3.00;2.60;;;4.90;99.90;;;;;;5038754;28;20453;-69
2021/12/02 12:55:34;;;;;;;4.33;3.20;;;4.80;99.90;;;;;;5027944;28;20520;-70
2021/12/02 12:58:11;;;;;;;6.23;3.00;;;4.80;99.90;;;;;;5028646;28;20454;-70
2021/12/02 13:00:47;;;;;;;3.20;2.90;;;4.90;99.90;;;;;;5028565;28;20401;-70
2021/12/02 13:03:28;;;;;;;3.33;3.03;;;4.90;99.90;;;;;;5046150;28;20456;-69
2021/12/02 13:06:01;;;;;;;8.80;4.80;;;4.70;99.90;;;;;;5044225;28;20436;-69
2021/12/02 13:08:33;;;;;;;6.43;4.90;;;4.80;99.90;;;;;;5032838;28;20393;-69
2021/12/02 13:11:01;;;;;;;6.87;5.50;;;4.90;99.90;;;;;;5047299;28;20414;-69
2021/12/02 13:13:32;;;;;;;7.03;5.87;;;5.10;99.90;;;;;;5036199;28;20424;-69
2021/12/02 13:16:16;;;;;;;6.20;5.47;;;5.10;99.90;;;;;;5031499;28;20429;-69